Flight Track Log - Related Links

Times and Time Zones

All times are in EDT time to prevent confusion due to time zone crossing. See the CCA1108 flight status page for this flight to view local times or setup timezone preferences in your user account.

Time Position Orientation Groundspeed Altitude Reporting Facility
EDT Latitude Longitude Course Direction KTS MPH feet Rate Location/Type
Sat 08:27:00 PM 40.4870 111.4458 93° East  Level Estimated
Sat 08:28:00 PM 40.4751 111.6525 94° East  Level Estimated
Sat 08:29:00 PM 40.4629 111.8592 94° East  Level Estimated
Sat 08:30:00 PM 40.4502 112.0657 95° East  Level Estimated
Sat 08:31:00 PM 40.4372 112.2722 95° East  Level Estimated
Sat 08:32:00 PM 40.4239 112.4786 95° East  Level Estimated
Sat 08:33:00 PM 40.4101 112.6849 95° East  Level Estimated
Sat 08:34:00 PM 40.3960 112.8912 95° East  Level Estimated
Sat 08:35:00 PM 40.3816 113.0973 95° East  Level Estimated
Sat 08:36:00 PM 40.3667 113.3034 95° East  Level Estimated
Sat 08:37:00 PM 40.3515 113.5093 95° East  Level Estimated
Sat 08:38:00 PM 40.3360 113.7152 96° East  Level Estimated
Sat 08:39:00 PM 40.3200 113.9210 96° East  Level Estimated
Sat 08:40:00 PM 40.3037 114.1267 96° East  Level Estimated
Sat 08:41:00 PM 40.2871 114.3322 96° East  Level Estimated
Sat 08:42:00 PM 40.2701 114.5377 96° East  Level Estimated
Sat 08:43:00 PM 40.2527 114.7431 96° East  Level Estimated
Sat 08:44:00 PM 40.2349 114.9483 96° East  Level Estimated
Sat 08:45:00 PM 40.2168 115.1535 97° East  Level Estimated
Sat 08:46:00 PM 40.1983 115.3585 97° East  Level Estimated
Sat 08:47:00 PM 40.1795 115.5635 97° East  Level Estimated
Sat 08:48:00 PM 40.1603 115.7683 97° East  Level Estimated
Sat 08:49:00 PM 40.1408 115.9730 97° East  Level Estimated
Sat 08:50:00 PM 40.1208 116.1776 97° East  Level Estimated
Sat 08:51:00 PM 40.1006 116.3820 97° East  Level Estimated
Sat 08:52:00 PM 40.0801 116.5846 97° East  Level Estimated
Sat 08:53:00 PM 40.0801 116.5846 288° West  Level Estimated
Sat 08:54:00 PM 40.0801 116.5846 288° West  Level Estimated
Sat 08:55:00 PM 40.0801 116.5846 288° West  Level Estimated
Sat 08:56:00 PM 40.0801 116.5846 288° West  Level Estimated
Sat 08:57:00 PM 40.0801 116.5846 288° West  Level Estimated
Sat 08:58:00 PM 40.0801 116.5846 288° West  Level Estimated
Sat 08:59:00 PM 40.0801 116.5846 288° West  Level Estimated
Sat 09:00:00 PM 40.0801 116.5846 288° West  Level Estimated
Sat 09:01:00 PM 40.0801 116.5846 288° West  Level Estimated
Sat 09:02:00 PM 40.0801 116.5846 288° West  Level Estimated
Sat 09:03:00 PM 40.0801 116.5846 288° West  Level Estimated
Sat 09:04:00 PM 40.0801 116.5846 288° West  Level Estimated
Sat 09:05:00 PM 40.0801 116.5846 288° West  Level Estimated
Sat 09:06:00 PM 40.0801 116.5846 288° West  Level Estimated
Sat 09:07:00 PM 40.0801 116.5846 288° West  Level Estimated
Sat 09:08:00 PM 40.0801 116.5846 288° West  Level Estimated

Login

Don't have an account? Register now (free) for customized features, flight alerts, and more!